LSZA Informações do Aeroporto

Informações da Pista
Pista 01 Comprimento 4429 ft Largura 98 ft
Elevação 896 ft Limite 361 ft Heading 19
Pista 19 Comprimento 4429 ft Largura 98 ft
Elevação 915 ft Limite 672 ft Heading 199
Frequências do Aeroporto
Tipo ATIS Nome ATIS Frequência 121.175 MHZ
Tipo GND Nome GND Frequência 121.775 MHZ
Tipo TWR Nome TWR Frequência 120.25 MHZ
Navaids do Aeroporto
Informações meteorológicas do aeroporto e NOTAM
ADDS - METARS form results

(2046 UTC 16 January 2019)
Data provider http://aviationweather.gov/metar/data/
 
METAR text: LSZA 162020Z VRB02KT 8000 -RA FEW014 SCT028 BKN045 06/03 Q1018 REDZ NOSIG
Conditions at: LSZA (LUGANO (PVT/AUT), CH) observed 2020 UTC 16 January 2019
Temperature: 6.0°C (43°F)
Dewpoint: 3.0°C (37°F) [RH = 81%]
Pressure (altimeter): 30.06 inches Hg (1018.0 mb)
Winds: variable direction winds at 2 MPH (2 knots; 1.0 m/s)
Visibility: 5 miles ( 8 km)
Ceiling: 4500 feet AGL
Clouds: few clouds at 1400 feet AGL
scattered clouds at 2800 feet AGL
broken clouds at 4500 feet AGL
Weather: -RA  (light rain)

METAR text: LSZA 161950Z 21003KT 9999 SCT033 BKN040 06/02 Q1018 NOSIG
Conditions at: LSZA (LUGANO (PVT/AUT), CH) observed 1950 UTC 16 January 2019
Temperature: 6.0°C (43°F)
Dewpoint: 2.0°C (36°F) [RH = 75%]
Pressure (altimeter): 30.06 inches Hg (1018.0 mb)
Winds: from the SSW (210 degrees) at 3 MPH (3 knots; 1.5 m/s)
Visibility: 6 or more miles (10+ km)
Ceiling: 4000 feet AGL
Clouds: scattered clouds at 3300 feet AGL
broken clouds at 4000 feet AGL
Weather: no significant weather observed at this time

Forecast for: LSZA (LUGANO (PVT/AUT), CH)
Text: TAF LSZA 161425Z 1615/1624 VRB03KT 9999 BKN050
Forecast period: 1500 UTC 16 January 2019 to 0000 UTC 17 January 2019
Forecast type: FROM: standard forecast or significant change
Winds: variable direction winds at 3 MPH (3 knots; 1.5 m/s)
Visibility: 6 or more miles 10+ km)
Ceiling: 5000 feet AGL
Clouds: broken clouds at 5000 feet AGL
Weather: no significant weather forecast for this period